createdAt,value
2023-01-18T00:00:46.570Z,98792.34
2023-01-18T00:03:13.917Z,98783.09
2023-01-18T00:05:41.732Z,98780.97
2023-01-18T00:08:19.069Z,98771.88
2023-01-18T00:10:45.954Z,98767.34
2023-01-18T00:13:13.143Z,98760.50
2023-01-18T00:15:39.761Z,98762.03
2023-01-18T00:18:06.492Z,98756.03
2023-01-18T00:20:33.311Z,98750.78
2023-01-18T00:23:01.873Z,98747.44
2023-01-18T00:25:29.178Z,98750.78
2023-01-18T00:27:56.700Z,98758.69
2023-01-18T00:30:26.066Z,98747.47
2023-01-18T00:32:55.637Z,98743.84
2023-01-18T00:35:22.763Z,98745.59
2023-01-18T00:37:50.407Z,98749.88
2023-01-18T00:40:17.558Z,98754.34
2023-01-18T00:43:02.955Z,98764.91
2023-01-18T00:45:29.870Z,98757.84
2023-01-18T00:47:56.594Z,98761.59
2023-01-18T00:50:23.337Z,98768.53
2023-01-18T00:52:50.296Z,98762.47
2023-01-18T00:55:17.891Z,98767.63
2023-01-18T00:57:44.605Z,98776.28
2023-01-18T01:00:15.339Z,98771.06
2023-01-18T01:02:42.166Z,98784.94
2023-01-18T01:05:39.299Z,98782.34
2023-01-18T01:08:07.161Z,98788.53
2023-01-18T01:10:34.860Z,98790.34
2023-01-18T01:13:20.331Z,98795.78
2023-01-18T01:16:05.593Z,98801.13
2023-01-18T01:18:51.075Z,98805.38
2023-01-18T01:21:36.360Z,98813.13
2023-01-18T01:24:21.753Z,98820.75
2023-01-18T01:26:48.400Z,98817.31
2023-01-18T01:29:16.019Z,98828.53
2023-01-18T01:31:43.068Z,98833.88
2023-01-18T01:34:09.998Z,98839.84
2023-01-18T01:36:36.796Z,98843.28
2023-01-18T01:39:03.895Z,98851.09
2023-01-18T01:41:32.726Z,98849.44
2023-01-18T01:44:03.009Z,98839.81
2023-01-18T01:46:35.465Z,98845.06
2023-01-18T01:49:09.515Z,98839.81
2023-01-18T01:51:42.289Z,98837.19
2023-01-18T01:54:14.849Z,98845.06
2023-01-18T01:56:45.398Z,98836.34
2023-01-18T01:59:12.406Z,98839.75
2023-01-18T02:01:40.416Z,98844.91
2023-01-18T02:04:07.235Z,98851.84
2023-01-18T02:06:35.796Z,98859.66
2023-01-18T02:09:04.913Z,98872.91
2023-01-18T02:11:31.694Z,98876.34
2023-01-18T02:14:01.877Z,98883.28
2023-01-18T02:16:59.936Z,98882.53
2023-01-18T02:19:55.990Z,98870.19
2023-01-18T02:23:01.136Z,98876.16
2023-01-18T02:26:08.918Z,98877.00
2023-01-18T02:28:39.803Z,98863.91
2023-01-18T02:31:26.404Z,98865.69
2023-01-18T02:34:27.179Z,98859.53
2023-01-18T02:37:12.795Z,98849.09
2023-01-18T02:39:52.085Z,98855.25
2023-01-18T02:42:39.402Z,98858.66
2023-01-18T02:45:31.371Z,98868.34
2023-01-18T02:47:58.531Z,98867.31
2023-01-18T02:50:27.317Z,98860.28
2023-01-18T02:52:54.518Z,98862.81
2023-01-18T02:55:34.840Z,98861.97
2023-01-18T02:58:34.781Z,98872.47
2023-01-18T03:01:12.332Z,98872.69
2023-01-18T03:03:41.007Z,98859.44
2023-01-18T03:06:08.578Z,98864.69
2023-01-18T03:08:47.726Z,98865.53
2023-01-18T03:11:18.279Z,98866.38
2023-01-18T03:13:56.810Z,98866.22
2023-01-18T03:16:26.251Z,98865.31
2023-01-18T03:19:01.331Z,98863.59
2023-01-18T03:21:48.859Z,98855.78
2023-01-18T03:24:16.823Z,98853.13
2023-01-18T03:26:47.274Z,98867.13
2023-01-18T03:29:34.935Z,98864.53
2023-01-18T03:32:29.565Z,98868.19
2023-01-18T03:35:03.365Z,98868.19
2023-01-18T03:37:32.436Z,98869.91
2023-01-18T03:40:04.155Z,98881.09
2023-01-18T03:42:37.975Z,98886.47
2023-01-18T03:45:30.034Z,98880.25
2023-01-18T03:47:56.688Z,98873.22
2023-01-18T03:50:29.476Z,98873.94
2023-01-18T03:52:59.314Z,98879.16
2023-01-18T03:55:43.861Z,98873.84
2023-01-18T03:58:12.831Z,98875.59
2023-01-18T04:00:40.169Z,98871.16
2023-01-18T04:03:07.023Z,98882.56
2023-01-18T04:05:35.152Z,98872.91
2023-01-18T04:08:01.824Z,98865.09
2023-01-18T04:10:28.424Z,98865.03
2023-01-18T04:12:55.148Z,98871.16
2023-01-18T04:15:21.816Z,98868.53
2023-01-18T04:17:53.217Z,98881.59
2023-01-18T04:20:20.033Z,98871.22
2023-01-18T04:22:52.264Z,98875.53
2023-01-18T04:25:19.439Z,98882.56
2023-01-18T04:27:46.064Z,98876.31
2023-01-18T04:30:13.016Z,98878.00
2023-01-18T04:32:40.109Z,98877.13
2023-01-18T04:35:07.047Z,98873.53
2023-01-18T04:37:34.245Z,98875.34
2023-01-18T04:40:01.185Z,98877.94
2023-01-18T04:42:27.829Z,98873.56
2023-01-18T04:44:54.495Z,98872.75
2023-01-18T04:47:21.164Z,98888.38
2023-01-18T04:49:50.881Z,98884.00
2023-01-18T04:52:19.141Z,98877.00
2023-01-18T04:54:45.975Z,98882.28
2023-01-18T04:57:12.663Z,98872.78
2023-01-18T04:59:39.370Z,98869.19
2023-01-18T05:02:06.169Z,98879.69
2023-01-18T05:04:32.850Z,98887.63
2023-01-18T05:07:02.305Z,98883.13
2023-01-18T05:09:29.013Z,98882.38
2023-01-18T05:11:55.629Z,98891.06
2023-01-18T05:14:22.248Z,98893.63
2023-01-18T05:16:48.949Z,98900.56
2023-01-18T05:19:16.215Z,98902.09
2023-01-18T05:21:42.825Z,98909.84
2023-01-18T05:24:09.534Z,98917.69
2023-01-18T05:26:36.531Z,98916.69
2023-01-18T05:29:03.242Z,98920.25
2023-01-18T05:31:29.937Z,98920.19
2023-01-18T05:33:57.618Z,98921.91
2023-01-18T05:36:24.362Z,98920.25
2023-01-18T05:38:50.999Z,98923.59
2023-01-18T05:41:18.019Z,98931.44
2023-01-18T05:43:44.693Z,98935.88
2023-01-18T05:46:11.496Z,98934.91
2023-01-18T05:48:38.217Z,98934.81
2023-01-18T05:51:09.471Z,98923.41
2023-01-18T05:53:36.157Z,98931.41
2023-01-18T05:56:05.402Z,98929.59
2023-01-18T05:58:32.046Z,98927.88
2023-01-18T06:00:58.928Z,98937.34
2023-01-18T06:03:25.662Z,98944.25
2023-01-18T06:05:52.552Z,98948.59
2023-01-18T06:08:22.477Z,98946.09
2023-01-18T06:10:56.810Z,98932.97
2023-01-18T06:13:24.307Z,98945.06
2023-01-18T06:15:52.095Z,98947.84
2023-01-18T06:18:18.822Z,98944.34
2023-01-18T06:20:45.662Z,98953.88
2023-01-18T06:23:12.555Z,98960.78
2023-01-18T06:25:39.248Z,98958.09
2023-01-18T06:28:06.526Z,98961.53
2023-01-18T06:30:34.484Z,98972.06
2023-01-18T06:33:06.731Z,98976.25
2023-01-18T06:35:34.354Z,98985.03
2023-01-18T06:38:01.232Z,98984.13
2023-01-18T06:40:34.049Z,98992.94
2023-01-18T06:43:01.691Z,98985.13
2023-01-18T06:45:29.492Z,98991.16
2023-01-18T06:47:56.329Z,98985.09
2023-01-18T06:50:23.076Z,98985.84
2023-01-18T06:52:49.769Z,98984.03
2023-01-18T06:55:16.521Z,98979.63
2023-01-18T06:57:43.145Z,98983.94
2023-01-18T07:00:11.393Z,98993.59
2023-01-18T07:02:38.229Z,98995.44
2023-01-18T07:05:08.095Z,98998.03
2023-01-18T07:07:34.738Z,98993.78
2023-01-18T07:10:01.368Z,99000.63
2023-01-18T07:12:27.971Z,99004.03
2023-01-18T07:14:54.616Z,99003.16
2023-01-18T07:17:24.368Z,99002.16
2023-01-18T07:19:51.171Z,99011.94
2023-01-18T07:22:17.794Z,99021.59
2023-01-18T07:24:45.664Z,99012.94
2023-01-18T07:27:12.582Z,99011.03
2023-01-18T07:29:39.287Z,99002.22
2023-01-18T07:32:05.975Z,99003.16
2023-01-18T07:34:32.631Z,99005.47
2023-01-18T07:36:59.293Z,99020.28
2023-01-18T07:39:25.934Z,99015.59
2023-01-18T07:41:52.619Z,99018.09
2023-01-18T07:44:19.381Z,99020.81
2023-01-18T07:46:46.005Z,99032.44
2023-01-18T07:49:12.701Z,99027.09
2023-01-18T07:51:39.351Z,99032.22
2023-01-18T07:54:06.091Z,99024.94
2023-01-18T07:56:32.853Z,99019.72
2023-01-18T07:58:59.843Z,99012.97
2023-01-18T08:01:26.793Z,99014.44
2023-01-18T08:03:54.852Z,99028.09
2023-01-18T08:06:25.095Z,99022.00
2023-01-18T08:08:52.696Z,99027.00
2023-01-18T08:11:19.731Z,99023.22
2023-01-18T08:13:48.990Z,99021.09
2023-01-18T08:16:16.319Z,99024.84
2023-01-18T08:18:45.324Z,99025.47
2023-01-18T08:21:13.318Z,99028.59
2023-01-18T08:23:40.604Z,99038.13
2023-01-18T08:26:08.378Z,99024.94
2023-01-18T08:28:35.089Z,99034.66
2023-01-18T08:31:08.033Z,99035.03
2023-01-18T08:33:40.084Z,99035.66
2023-01-18T08:36:10.623Z,99031.50
2023-01-18T08:38:37.313Z,99039.28
2023-01-18T08:41:04.532Z,99043.63
2023-01-18T08:43:31.429Z,99044.34
2023-01-18T08:45:58.054Z,99042.19
2023-01-18T08:48:24.688Z,99048.38
2023-01-18T08:50:51.793Z,99045.44
2023-01-18T08:53:18.530Z,99054.19
2023-01-18T08:55:45.287Z,99048.13
2023-01-18T08:58:12.795Z,99053.97
2023-01-18T09:00:39.411Z,99047.09
2023-01-18T09:03:06.944Z,99056.63
2023-01-18T09:05:35.716Z,99050.00
2023-01-18T09:08:03.688Z,99067.28
2023-01-18T09:10:30.433Z,99062.88
2023-01-18T09:12:57.428Z,99067.00
2023-01-18T09:15:24.416Z,99070.31
2023-01-18T09:17:51.049Z,99065.81
2023-01-18T09:20:19.039Z,99079.66
2023-01-18T09:22:48.680Z,99084.84
2023-01-18T09:25:18.188Z,99083.75
2023-01-18T09:27:46.770Z,99075.13
2023-01-18T09:30:16.172Z,99082.00
2023-01-18T09:32:43.025Z,99080.91
2023-01-18T09:35:10.068Z,99085.34
2023-01-18T09:37:36.693Z,99080.91
2023-01-18T09:40:07.030Z,99088.53
2023-01-18T09:42:37.131Z,99090.09
2023-01-18T09:45:04.186Z,99089.25
2023-01-18T09:47:40.627Z,99089.28
2023-01-18T09:50:17.453Z,99102.50
2023-01-18T09:53:06.019Z,99096.97
2023-01-18T09:55:40.199Z,99094.25
2023-01-18T09:58:36.994Z,99097.66
2023-01-18T10:01:16.022Z,99089.56
2023-01-18T10:03:56.313Z,99097.47
2023-01-18T10:06:30.397Z,99094.59
2023-01-18T10:09:07.222Z,99092.34
2023-01-18T10:11:47.535Z,99092.63
2023-01-18T10:14:33.308Z,99097.63
2023-01-18T10:17:03.557Z,99096.72
2023-01-18T10:19:31.880Z,99101.66
2023-01-18T10:22:28.516Z,99099.34
2023-01-18T10:25:26.467Z,99092.19
2023-01-18T10:28:16.244Z,99100.44
2023-01-18T10:31:23.634Z,99107.50
2023-01-18T10:33:54.881Z,99110.06
2023-01-18T10:36:33.522Z,99109.75
2023-01-18T10:39:02.651Z,99112.50
2023-01-18T10:41:34.755Z,99110.06
2023-01-18T10:44:01.948Z,99105.75
2023-01-18T10:46:29.234Z,99099.75
2023-01-18T10:48:59.325Z,99108.88
2023-01-18T10:51:36.969Z,99104.94
2023-01-18T10:54:29.997Z,99109.16
2023-01-18T10:57:05.920Z,99104.06
2023-01-18T10:59:39.830Z,99108.72
2023-01-18T11:02:29.676Z,99114.94
2023-01-18T11:05:00.654Z,99106.72
2023-01-18T11:07:28.638Z,99114.78
2023-01-18T11:09:59.461Z,99104.34
2023-01-18T11:12:38.931Z,99118.00
2023-01-18T11:15:14.913Z,99113.28
2023-01-18T11:17:46.126Z,99115.84
2023-01-18T11:20:23.386Z,99115.75
2023-01-18T11:22:54.455Z,99119.72
2023-01-18T11:25:21.791Z,99111.13
2023-01-18T11:27:49.189Z,99115.41
2023-01-18T11:30:25.498Z,99113.16
2023-01-18T11:32:52.307Z,99115.53
2023-01-18T11:35:30.945Z,99127.06
2023-01-18T11:37:59.197Z,99131.91
2023-01-18T11:40:32.299Z,99135.19
2023-01-18T11:43:04.046Z,99144.06
2023-01-18T11:45:33.666Z,99134.13
2023-01-18T11:48:08.635Z,99139.16
2023-01-18T11:50:43.407Z,99139.75
2023-01-18T11:53:13.170Z,99138.44
2023-01-18T11:55:46.775Z,99135.97
2023-01-18T11:58:28.594Z,99143.78
2023-01-18T12:01:09.718Z,99143.44
2023-01-18T12:03:53.409Z,99141.13
2023-01-18T12:06:27.350Z,99152.28
2023-01-18T12:09:16.808Z,99152.28
2023-01-18T12:12:17.705Z,99148.50
2023-01-18T12:15:18.433Z,99154.41
2023-01-18T12:18:13.952Z,99158.28
2023-01-18T12:21:06.118Z,99159.19
2023-01-18T12:23:54.621Z,99154.66
2023-01-18T12:26:30.425Z,99157.94
2023-01-18T12:28:59.974Z,99169.31
2023-01-18T12:31:49.639Z,99162.41
2023-01-18T12:34:27.504Z,99158.84
2023-01-18T12:37:11.894Z,99164.16
2023-01-18T12:40:03.452Z,99174.91
2023-01-18T12:43:05.335Z,99173.72
2023-01-18T12:45:57.193Z,99180.03
2023-01-18T12:48:42.640Z,99185.50
2023-01-18T12:51:14.193Z,99192.13
2023-01-18T12:53:59.374Z,99198.31
2023-01-18T12:56:32.273Z,99200.50
2023-01-18T12:59:01.895Z,99193.56
2023-01-18T13:01:37.035Z,99203.06
2023-01-18T13:04:14.342Z,99202.66
2023-01-18T13:06:42.022Z,99205.38
2023-01-18T13:09:19.164Z,99219.94
2023-01-18T13:11:45.991Z,99217.69
2023-01-18T13:14:27.690Z,99212.47
2023-01-18T13:17:18.421Z,99225.91
2023-01-18T13:19:54.728Z,99223.16
2023-01-18T13:22:29.016Z,99224.41
2023-01-18T13:25:23.580Z,99235.38
2023-01-18T13:28:11.817Z,99234.06
2023-01-18T13:31:06.498Z,99239.34
2023-01-18T13:33:39.319Z,99234.09
2023-01-18T13:36:08.185Z,99241.09
2023-01-18T13:38:48.472Z,99248.50
2023-01-18T13:41:17.001Z,99255.41
2023-01-18T13:43:43.719Z,99258.97
2023-01-18T13:46:10.317Z,99265.47
2023-01-18T13:48:54.515Z,99262.19
2023-01-18T13:51:39.645Z,99259.72
2023-01-18T13:54:08.514Z,99270.22
2023-01-18T13:56:37.685Z,99276.34
2023-01-18T13:59:20.065Z,99279.97
2023-01-18T14:01:51.209Z,99281.28
2023-01-18T14:04:32.214Z,99285.00
2023-01-18T14:07:02.234Z,99290.19
2023-01-18T14:09:44.819Z,99295.59
2023-01-18T14:12:12.045Z,99302.56
2023-01-18T14:14:57.113Z,99298.94
2023-01-18T14:17:25.395Z,99309.41
2023-01-18T14:20:25.584Z,99315.44
2023-01-18T14:23:17.884Z,99321.38
2023-01-18T14:25:50.956Z,99328.63
2023-01-18T14:28:34.834Z,99335.91
2023-01-18T14:31:04.355Z,99332.16
2023-01-18T14:33:35.306Z,99336.66
2023-01-18T14:36:02.830Z,99349.66
2023-01-18T14:38:32.675Z,99352.44
2023-01-18T14:41:06.926Z,99350.38
2023-01-18T14:43:41.370Z,99353.00
2023-01-18T14:46:17.169Z,99352.25
2023-01-18T14:48:48.533Z,99361.81
2023-01-18T14:51:26.044Z,99370.84
2023-01-18T14:54:02.055Z,99374.09
2023-01-18T14:56:32.009Z,99377.09
2023-01-18T14:59:16.800Z,99378.84
2023-01-18T15:01:54.670Z,99385.94
2023-01-18T15:04:33.016Z,99385.09
2023-01-18T15:07:02.031Z,99395.59
2023-01-18T15:09:31.416Z,99395.69
2023-01-18T15:12:00.118Z,99397.38
2023-01-18T15:14:29.342Z,99405.38
2023-01-18T15:16:56.938Z,99404.63
2023-01-18T15:19:41.770Z,99415.13
2023-01-18T15:22:11.230Z,99410.81
2023-01-18T15:24:40.159Z,99427.53
2023-01-18T15:27:12.295Z,99431.88
2023-01-18T15:29:39.511Z,99428.34
2023-01-18T15:32:15.707Z,99431.00
2023-01-18T15:34:45.073Z,99438.91
2023-01-18T15:37:26.416Z,99446.09
2023-01-18T15:40:03.788Z,99453.22
2023-01-18T15:42:38.342Z,99450.97
2023-01-18T15:45:12.825Z,99456.84
2023-01-18T15:47:39.555Z,99463.88
2023-01-18T15:50:16.483Z,99462.16
2023-01-18T15:52:45.550Z,99463.13
2023-01-18T15:55:34.392Z,99467.47
2023-01-18T15:58:09.253Z,99471.88
2023-01-18T16:00:41.226Z,99476.69
2023-01-18T16:03:25.909Z,99478.16
2023-01-18T16:06:11.415Z,99487.94
2023-01-18T16:08:56.860Z,99491.50
2023-01-18T16:11:32.215Z,99501.31
2023-01-18T16:14:00.983Z,99492.53
2023-01-18T16:16:29.259Z,99507.47
2023-01-18T16:19:05.514Z,99518.88
2023-01-18T16:21:42.883Z,99510.16
2023-01-18T16:24:15.781Z,99521.78
2023-01-18T16:26:43.483Z,99523.47
2023-01-18T16:29:10.562Z,99522.69
2023-01-18T16:31:41.119Z,99526.13
2023-01-18T16:34:18.224Z,99530.47
2023-01-18T16:36:44.951Z,99534.94
2023-01-18T16:39:11.636Z,99539.81
2023-01-18T16:41:38.361Z,99543.22
2023-01-18T16:44:05.144Z,99547.47
2023-01-18T16:46:33.611Z,99555.34
2023-01-18T16:49:00.336Z,99558.69
2023-01-18T16:51:28.874Z,99552.81
2023-01-18T16:53:55.752Z,99558.03
2023-01-18T16:56:22.468Z,99556.13
2023-01-18T16:58:49.342Z,99564.84
2023-01-18T17:01:16.650Z,99575.50
2023-01-18T17:03:43.538Z,99570.25
2023-01-18T17:06:16.569Z,99572.91
2023-01-18T17:08:43.765Z,99572.81
2023-01-18T17:11:12.514Z,99585.72
2023-01-18T17:13:40.083Z,99587.28
2023-01-18T17:16:12.944Z,99587.31
2023-01-18T17:18:39.791Z,99590.75
2023-01-18T17:21:10.602Z,99597.75
2023-01-18T17:23:39.338Z,99608.38
2023-01-18T17:26:13.116Z,99612.72
2023-01-18T17:28:39.836Z,99612.69
2023-01-18T17:31:06.609Z,99610.06
2023-01-18T17:33:36.117Z,99624.25
2023-01-18T17:38:49.423Z,99622.59
2023-01-18T17:41:27.673Z,99625.22
2023-01-18T17:43:55.371Z,99637.63
2023-01-18T17:46:22.243Z,99636.75
2023-01-18T17:48:49.025Z,99634.34
2023-01-18T17:51:16.792Z,99643.09
2023-01-18T17:53:43.534Z,99642.34
2023-01-18T17:56:12.315Z,99644.09
2023-01-18T17:58:39.639Z,99646.84
2023-01-18T18:01:10.544Z,99647.84
2023-01-18T18:03:43.377Z,99653.31
2023-01-18T18:06:11.187Z,99656.94
2023-01-18T18:08:39.328Z,99653.50
2023-01-18T18:11:10.072Z,99670.22
2023-01-18T18:13:37.202Z,99657.94
2023-01-18T18:16:04.813Z,99668.59
2023-01-18T18:18:31.661Z,99665.13
2023-01-18T18:21:03.443Z,99670.47
2023-01-18T18:23:30.464Z,99672.41
2023-01-18T18:25:57.342Z,99673.25
2023-01-18T18:28:25.005Z,99679.34
2023-01-18T18:30:51.870Z,99678.59
2023-01-18T18:33:19.436Z,99677.78
2023-01-18T18:35:50.401Z,99683.91
2023-01-18T18:38:23.104Z,99680.41
2023-01-18T18:40:50.753Z,99691.84
2023-01-18T18:43:17.516Z,99697.13
2023-01-18T18:45:44.769Z,99694.50
2023-01-18T18:48:13.194Z,99693.69
2023-01-18T18:50:40.205Z,99694.66
2023-01-18T18:53:14.021Z,99706.88
2023-01-18T18:55:40.756Z,99706.88
2023-01-18T18:58:07.450Z,99713.03
2023-01-18T19:00:34.632Z,99716.63
2023-01-18T19:03:02.753Z,99708.75
2023-01-18T19:05:30.863Z,99711.38
2023-01-18T19:07:57.577Z,99720.19
2023-01-18T19:10:27.555Z,99723.69
2023-01-18T19:12:55.164Z,99722.06
2023-01-18T19:15:21.875Z,99734.31
2023-01-18T19:17:50.138Z,99734.44
2023-01-18T19:20:20.172Z,99738.03
2023-01-18T19:22:47.942Z,99738.91
2023-01-18T19:25:18.511Z,99743.28
2023-01-18T19:27:45.730Z,99737.31
2023-01-18T19:30:18.916Z,99741.63
2023-01-18T19:32:47.725Z,99747.84
2023-01-18T19:35:14.494Z,99739.97
2023-01-18T19:37:41.542Z,99746.19
2023-01-18T19:40:09.854Z,99760.28
2023-01-18T19:42:36.626Z,99760.34
2023-01-18T19:45:04.844Z,99760.44
2023-01-18T19:47:31.713Z,99760.47
2023-01-18T19:50:03.022Z,99761.28
2023-01-18T19:52:30.661Z,99762.09
2023-01-18T19:54:59.057Z,99767.38
2023-01-18T19:57:26.678Z,99760.53
2023-01-18T19:59:53.810Z,99766.63
2023-01-18T20:02:22.678Z,99771.91
2023-01-18T20:04:49.934Z,99768.44
2023-01-18T20:07:16.657Z,99774.59
2023-01-18T20:09:43.751Z,99780.69
2023-01-18T20:12:12.707Z,99776.38
2023-01-18T20:14:41.959Z,99779.09
2023-01-18T20:17:10.788Z,99787.97
2023-01-18T20:19:37.577Z,99788.06
2023-01-18T20:27:16.354Z,99783.50
2023-01-18T20:29:43.702Z,99780.81
2023-01-18T20:32:16.026Z,99786.66
2023-01-18T20:34:44.823Z,99786.66
2023-01-18T20:37:12.825Z,99795.31
2023-01-18T20:39:39.613Z,99795.31
2023-01-18T20:42:06.304Z,99790.91
2023-01-18T20:44:32.931Z,99792.69
2023-01-18T20:46:59.490Z,99806.66
2023-01-18T20:49:37.245Z,99804.88
2023-01-18T20:52:05.181Z,99808.38
2023-01-18T20:54:32.543Z,99803.19
2023-01-18T20:57:00.109Z,99802.31
2023-01-18T20:59:26.678Z,99807.59
2023-01-18T21:01:53.528Z,99811.97
2023-01-18T21:04:20.764Z,99817.22
2023-01-18T21:06:49.970Z,99815.56
2023-01-18T21:09:16.778Z,99812.94
2023-01-18T21:11:43.768Z,99817.34
2023-01-18T21:14:10.349Z,99826.94
2023-01-18T21:16:36.989Z,99838.34
2023-01-18T21:19:03.780Z,99834.91
2023-01-18T21:21:31.940Z,99834.91
2023-01-18T21:23:59.314Z,99840.19
2023-01-18T21:26:25.988Z,99838.47
2023-01-18T21:28:52.618Z,99843.72
2023-01-18T21:31:19.312Z,99853.31
2023-01-18T21:33:45.905Z,99854.19
2023-01-18T21:36:14.623Z,99865.56
2023-01-18T21:38:41.715Z,99856.88
2023-01-18T21:41:27.434Z,99864.75
2023-01-18T21:44:12.967Z,99863.91
2023-01-18T21:46:45.103Z,99870.06
2023-01-18T21:49:47.167Z,99870.06
2023-01-18T21:52:37.114Z,99884.06
2023-01-18T21:55:03.923Z,99872.72
2023-01-18T21:57:30.531Z,99877.97
2023-01-18T21:59:57.130Z,99868.41
2023-01-18T22:02:23.916Z,99880.59
2023-01-18T22:05:05.680Z,99871.06
2023-01-18T22:07:34.301Z,99879.78
2023-01-18T22:10:05.521Z,99884.16
2023-01-18T22:12:35.495Z,99890.28
2023-01-18T22:15:04.501Z,99890.31
2023-01-18T22:17:31.411Z,99886.84
2023-01-18T22:19:58.010Z,99894.69
2023-01-18T22:22:24.573Z,99894.69
2023-01-18T22:24:51.310Z,99899.03
2023-01-18T22:27:18.022Z,99902.56
2023-01-18T22:29:44.620Z,99904.38
2023-01-18T22:32:11.184Z,99909.63
2023-01-18T22:34:37.923Z,99909.59
2023-01-18T22:37:05.695Z,99913.13
2023-01-18T22:39:32.275Z,99914.91
2023-01-18T22:41:58.833Z,99925.38
2023-01-18T22:44:25.408Z,99920.09
2023-01-18T22:46:52.199Z,99932.34
2023-01-18T22:49:18.800Z,99921.03
2023-01-18T22:51:45.412Z,99921.03
2023-01-18T22:54:11.969Z,99928.91
2023-01-18T22:56:38.535Z,99928.09
2023-01-18T22:59:05.176Z,99923.75
2023-01-18T23:01:32.832Z,99927.25
2023-01-18T23:04:01.781Z,99931.59
2023-01-18T23:06:29.595Z,99918.53
2023-01-18T23:08:56.423Z,99925.47
2023-01-18T23:11:26.295Z,99929.81
2023-01-18T23:14:16.602Z,99924.59
2023-01-18T23:17:02.289Z,99922.00
2023-01-18T23:19:30.888Z,99924.63
2023-01-18T23:21:58.044Z,99936.84
2023-01-18T23:24:24.770Z,99932.47
2023-01-18T23:26:51.841Z,99930.72
2023-01-18T23:29:18.698Z,99934.25
2023-01-18T23:31:45.240Z,99928.97
2023-01-18T23:34:11.828Z,99927.25
2023-01-18T23:36:38.505Z,99929.00
2023-01-18T23:39:23.492Z,99928.13
2023-01-18T23:42:08.531Z,99929.88
2023-01-18T23:44:53.756Z,99932.53
2023-01-18T23:47:39.078Z,99936.03
2023-01-18T23:50:24.188Z,99928.22
2023-01-18T23:53:09.480Z,99943.91
2023-01-18T23:55:36.036Z,99939.56
2023-01-18T23:58:03.011Z,99951.75
